sensor_id;sensor_type;location;lat;lon;timestamp;temperature;humidity
1137;DHT22;557;48.466;7.950;2024-01-15T00:02:21;-2.00;99.90
1137;DHT22;557;48.466;7.950;2024-01-15T00:04:47;-2.00;99.90
1137;DHT22;557;48.466;7.950;2024-01-15T00:07:14;-2.00;99.90
1137;DHT22;557;48.466;7.950;2024-01-15T00:09:41;-2.00;99.90
1137;DHT22;557;48.466;7.950;2024-01-15T00:12:08;-2.00;99.90
1137;DHT22;557;48.466;7.950;2024-01-15T00:14:36;-1.90;99.90
1137;DHT22;557;48.466;7.950;2024-01-15T00:17:04;-1.90;99.90
1137;DHT22;557;48.466;7.950;2024-01-15T00:19:30;-1.90;99.90
1137;DHT22;557;48.466;7.950;2024-01-15T00:21:58;-2.00;99.90
1137;DHT22;557;48.466;7.950;2024-01-15T00:24:25;-2.00;99.90
1137;DHT22;557;48.466;7.950;2024-01-15T00:26:52;-2.00;99.90
1137;DHT22;557;48.466;7.950;2024-01-15T00:29:21;-2.00;99.90
1137;DHT22;557;48.466;7.950;2024-01-15T00:31:49;-2.00;99.90
1137;DHT22;557;48.466;7.950;2024-01-15T00:34:16;-1.90;99.90
1137;DHT22;557;48.466;7.950;2024-01-15T00:36:43;-1.90;99.90
1137;DHT22;557;48.466;7.950;2024-01-15T00:39:09;-1.80;99.90
1137;DHT22;557;48.466;7.950;2024-01-15T00:41:37;-1.80;99.90
1137;DHT22;557;48.466;7.950;2024-01-15T00:44:04;-1.70;99.90
1137;DHT22;557;48.466;7.950;2024-01-15T00:46:32;-1.80;99.90
1137;DHT22;557;48.466;7.950;2024-01-15T00:49:00;-1.80;99.90
1137;DHT22;557;48.466;7.950;2024-01-15T00:51:28;-1.80;99.90
1137;DHT22;557;48.466;7.950;2024-01-15T00:53:55;-1.70;99.90
1137;DHT22;557;48.466;7.950;2024-01-15T00:56:22;-1.80;99.90
1137;DHT22;557;48.466;7.950;2024-01-15T00:58:49;-1.70;99.90
1137;DHT22;557;48.466;7.950;2024-01-15T01:01:16;-1.80;99.90
1137;DHT22;557;48.466;7.950;2024-01-15T01:03:42;-1.70;99.90
1137;DHT22;557;48.466;7.950;2024-01-15T01:06:11;-1.60;99.90
1137;DHT22;557;48.466;7.950;2024-01-15T01:08:38;-1.70;99.90
1137;DHT22;557;48.466;7.950;2024-01-15T01:11:05;-1.70;99.90
1137;DHT22;557;48.466;7.950;2024-01-15T01:13:33;-1.70;99.90
1137;DHT22;557;48.466;7.950;2024-01-15T01:15:59;-1.70;99.90
1137;DHT22;557;48.466;7.950;2024-01-15T01:18:26;-1.70;99.90
1137;DHT22;557;48.466;7.950;2024-01-15T01:20:53;-1.70;99.90
1137;DHT22;557;48.466;7.950;2024-01-15T01:23:22;-1.80;99.90
1137;DHT22;557;48.466;7.950;2024-01-15T01:25:49;-1.70;99.90
1137;DHT22;557;48.466;7.950;2024-01-15T01:28:16;-1.70;99.90
1137;DHT22;557;48.466;7.950;2024-01-15T01:30:43;-1.70;99.90
1137;DHT22;557;48.466;7.950;2024-01-15T01:33:10;-1.70;99.90
1137;DHT22;557;48.466;7.950;2024-01-15T01:35:37;-1.70;99.90
1137;DHT22;557;48.466;7.950;2024-01-15T01:38:04;-1.70;99.90
1137;DHT22;557;48.466;7.950;2024-01-15T01:40:32;-1.70;99.90
1137;DHT22;557;48.466;7.950;2024-01-15T01:42:59;-1.70;99.90
1137;DHT22;557;48.466;7.950;2024-01-15T01:45:25;-1.70;99.90
1137;DHT22;557;48.466;7.950;2024-01-15T01:47:52;-1.70;99.90
1137;DHT22;557;48.466;7.950;2024-01-15T01:50:19;-1.70;99.90
1137;DHT22;557;48.466;7.950;2024-01-15T01:52:46;-1.60;99.90
1137;DHT22;557;48.466;7.950;2024-01-15T01:55:14;-1.60;99.90
1137;DHT22;557;48.466;7.950;2024-01-15T01:57:42;-1.60;99.90
1137;DHT22;557;48.466;7.950;2024-01-15T02:00:11;-1.60;99.90
1137;DHT22;557;48.466;7.950;2024-01-15T02:02:38;-1.50;99.90
1137;DHT22;557;48.466;7.950;2024-01-15T02:05:06;-1.40;99.90
1137;DHT22;557;48.466;7.950;2024-01-15T02:07:34;-1.40;99.90
1137;DHT22;557;48.466;7.950;2024-01-15T02:10:01;-1.50;99.90
1137;DHT22;557;48.466;7.950;2024-01-15T02:12:29;-1.50;99.90
1137;DHT22;557;48.466;7.950;2024-01-15T02:14:57;-1.40;99.90
1137;DHT22;557;48.466;7.950;2024-01-15T02:17:24;-1.40;99.90
1137;DHT22;557;48.466;7.950;2024-01-15T02:19:51;-1.40;99.90
1137;DHT22;557;48.466;7.950;2024-01-15T02:22:18;-1.40;99.90
1137;DHT22;557;48.466;7.950;2024-01-15T02:24:46;-1.40;99.90
1137;DHT22;557;48.466;7.950;2024-01-15T02:27:13;-1.40;99.90
1137;DHT22;557;48.466;7.950;2024-01-15T02:29:40;-1.40;99.90
1137;DHT22;557;48.466;7.950;2024-01-15T02:32:09;-1.30;99.90
1137;DHT22;557;48.466;7.950;2024-01-15T02:34:36;-1.30;99.90
1137;DHT22;557;48.466;7.950;2024-01-15T02:37:02;-1.40;99.90
1137;DHT22;557;48.466;7.950;2024-01-15T02:39:29;-1.40;99.90
1137;DHT22;557;48.466;7.950;2024-01-15T02:41:58;-1.30;99.90
1137;DHT22;557;48.466;7.950;2024-01-15T02:44:25;-1.30;99.90
1137;DHT22;557;48.466;7.950;2024-01-15T02:46:52;-1.40;99.90
1137;DHT22;557;48.466;7.950;2024-01-15T02:49:19;-1.30;99.90
1137;DHT22;557;48.466;7.950;2024-01-15T02:51:46;-1.30;99.90
1137;DHT22;557;48.466;7.950;2024-01-15T02:54:13;-1.30;99.90
1137;DHT22;557;48.466;7.950;2024-01-15T02:56:40;-1.30;99.90
1137;DHT22;557;48.466;7.950;2024-01-15T02:59:08;-1.30;99.90
1137;DHT22;557;48.466;7.950;2024-01-15T03:01:35;-1.40;99.90
1137;DHT22;557;48.466;7.950;2024-01-15T03:04:02;-1.30;99.90
1137;DHT22;557;48.466;7.950;2024-01-15T03:06:29;-1.40;99.90
1137;DHT22;557;48.466;7.950;2024-01-15T03:08:56;-1.30;99.90
1137;DHT22;557;48.466;7.950;2024-01-15T03:11:23;-1.40;99.90
1137;DHT22;557;48.466;7.950;2024-01-15T03:13:50;-1.40;99.90
1137;DHT22;557;48.466;7.950;2024-01-15T03:16:18;-1.40;99.90
1137;DHT22;557;48.466;7.950;2024-01-15T03:18:46;-1.30;99.90
1137;DHT22;557;48.466;7.950;2024-01-15T03:21:13;-1.40;99.90
1137;DHT22;557;48.466;7.950;2024-01-15T03:23:39;-1.30;99.90
1137;DHT22;557;48.466;7.950;2024-01-15T03:26:07;-1.40;99.90
1137;DHT22;557;48.466;7.950;2024-01-15T03:28:33;-1.30;99.90
1137;DHT22;557;48.466;7.950;2024-01-15T03:31:00;-1.30;99.90
1137;DHT22;557;48.466;7.950;2024-01-15T03:33:28;-1.30;99.90
1137;DHT22;557;48.466;7.950;2024-01-15T03:35:55;-1.40;99.90
1137;DHT22;557;48.466;7.950;2024-01-15T03:38:23;-1.30;99.90
1137;DHT22;557;48.466;7.950;2024-01-15T03:40:50;-1.30;99.90
1137;DHT22;557;48.466;7.950;2024-01-15T03:43:17;-1.30;99.90
1137;DHT22;557;48.466;7.950;2024-01-15T03:45:43;-1.30;99.90
1137;DHT22;557;48.466;7.950;2024-01-15T03:48:11;-1.30;99.90
1137;DHT22;557;48.466;7.950;2024-01-15T03:50:39;-1.40;99.90
1137;DHT22;557;48.466;7.950;2024-01-15T03:53:06;-1.40;99.90
1137;DHT22;557;48.466;7.950;2024-01-15T03:55:33;-1.30;99.90
1137;DHT22;557;48.466;7.950;2024-01-15T03:58:00;-1.30;99.90
1137;DHT22;557;48.466;7.950;2024-01-15T04:00:27;-1.30;99.90
1137;DHT22;557;48.466;7.950;2024-01-15T04:02:53;-1.20;99.90
1137;DHT22;557;48.466;7.950;2024-01-15T04:05:20;-1.20;99.90
1137;DHT22;557;48.466;7.950;2024-01-15T04:07:49;-1.10;99.90
1137;DHT22;557;48.466;7.950;2024-01-15T04:10:15;-1.10;99.90
1137;DHT22;557;48.466;7.950;2024-01-15T04:12:42;-1.10;99.90
1137;DHT22;557;48.466;7.950;2024-01-15T04:15:11;-1.10;99.90
1137;DHT22;557;48.466;7.950;2024-01-15T04:17:38;-1.10;99.90
1137;DHT22;557;48.466;7.950;2024-01-15T04:20:06;-1.00;99.90
1137;DHT22;557;48.466;7.950;2024-01-15T04:22:34;-1.00;99.90
1137;DHT22;557;48.466;7.950;2024-01-15T04:25:03;-1.00;99.90
1137;DHT22;557;48.466;7.950;2024-01-15T04:27:30;-1.00;99.90
1137;DHT22;557;48.466;7.950;2024-01-15T04:29:57;-0.90;99.90
1137;DHT22;557;48.466;7.950;2024-01-15T04:32:24;-0.90;99.90
1137;DHT22;557;48.466;7.950;2024-01-15T04:34:51;-0.90;99.90
1137;DHT22;557;48.466;7.950;2024-01-15T04:37:18;-0.80;99.90
1137;DHT22;557;48.466;7.950;2024-01-15T04:39:45;-0.80;99.90
1137;DHT22;557;48.466;7.950;2024-01-15T04:42:13;-0.80;99.90
1137;DHT22;557;48.466;7.950;2024-01-15T04:44:40;-0.70;99.90
1137;DHT22;557;48.466;7.950;2024-01-15T04:47:07;-0.70;99.90
1137;DHT22;557;48.466;7.950;2024-01-15T04:49:33;-0.70;99.90
1137;DHT22;557;48.466;7.950;2024-01-15T04:52:00;-0.70;99.90
1137;DHT22;557;48.466;7.950;2024-01-15T04:54:27;-0.70;99.90
1137;DHT22;557;48.466;7.950;2024-01-15T04:56:54;-0.60;99.90
1137;DHT22;557;48.466;7.950;2024-01-15T04:59:22;-0.60;99.90
1137;DHT22;557;48.466;7.950;2024-01-15T05:01:49;-0.60;99.90
1137;DHT22;557;48.466;7.950;2024-01-15T05:04:16;-0.60;99.90
1137;DHT22;557;48.466;7.950;2024-01-15T05:06:43;-0.60;99.90
1137;DHT22;557;48.466;7.950;2024-01-15T05:09:09;-0.50;99.90
1137;DHT22;557;48.466;7.950;2024-01-15T05:11:36;-0.50;99.90
1137;DHT22;557;48.466;7.950;2024-01-15T05:14:02;-0.50;99.90
1137;DHT22;557;48.466;7.950;2024-01-15T05:16:31;-0.40;99.90
1137;DHT22;557;48.466;7.950;2024-01-15T05:18:57;-0.40;99.90
1137;DHT22;557;48.466;7.950;2024-01-15T05:21:24;-0.40;99.90
1137;DHT22;557;48.466;7.950;2024-01-15T05:23:51;-0.40;99.90
1137;DHT22;557;48.466;7.950;2024-01-15T05:26:18;-0.30;99.90
1137;DHT22;557;48.466;7.950;2024-01-15T05:28:45;-0.30;99.90
1137;DHT22;557;48.466;7.950;2024-01-15T05:31:12;-0.30;99.90
1137;DHT22;557;48.466;7.950;2024-01-15T05:33:40;-0.20;99.90
1137;DHT22;557;48.466;7.950;2024-01-15T05:36:07;-0.20;99.90
1137;DHT22;557;48.466;7.950;2024-01-15T05:38:34;-0.10;99.90
1137;DHT22;557;48.466;7.950;2024-01-15T05:41:01;-0.20;99.90
1137;DHT22;557;48.466;7.950;2024-01-15T05:43:27;-0.10;99.90
1137;DHT22;557;48.466;7.950;2024-01-15T05:45:54;-0.10;99.90
1137;DHT22;557;48.466;7.950;2024-01-15T05:48:21;-0.10;99.90
1137;DHT22;557;48.466;7.950;2024-01-15T05:50:50;-0.10;99.90
1137;DHT22;557;48.466;7.950;2024-01-15T05:53:16;-0.10;99.90
1137;DHT22;557;48.466;7.950;2024-01-15T05:55:43;0.00;99.90
1137;DHT22;557;48.466;7.950;2024-01-15T05:58:10;0.00;99.90
1137;DHT22;557;48.466;7.950;2024-01-15T06:00:37;0.00;99.90
1137;DHT22;557;48.466;7.950;2024-01-15T06:03:04;0.10;99.90
1137;DHT22;557;48.466;7.950;2024-01-15T06:05:31;0.20;99.90
1137;DHT22;557;48.466;7.950;2024-01-15T06:07:59;0.30;99.90
1137;DHT22;557;48.466;7.950;2024-01-15T06:10:26;0.30;99.90
1137;DHT22;557;48.466;7.950;2024-01-15T06:12:53;0.30;99.90
1137;DHT22;557;48.466;7.950;2024-01-15T06:15:20;0.30;99.90
1137;DHT22;557;48.466;7.950;2024-01-15T06:17:47;0.30;99.90
1137;DHT22;557;48.466;7.950;2024-01-15T06:20:14;0.30;99.90
1137;DHT22;557;48.466;7.950;2024-01-15T06:22:41;0.30;99.90
1137;DHT22;557;48.466;7.950;2024-01-15T06:25:09;0.30;99.90
1137;DHT22;557;48.466;7.950;2024-01-15T06:27:36;0.30;99.90
1137;DHT22;557;48.466;7.950;2024-01-15T06:30:04;0.30;99.90
1137;DHT22;557;48.466;7.950;2024-01-15T06:32:31;0.40;99.90
1137;DHT22;557;48.466;7.950;2024-01-15T06:34:58;0.40;99.90
1137;DHT22;557;48.466;7.950;2024-01-15T06:37:25;0.50;99.90
1137;DHT22;557;48.466;7.950;2024-01-15T06:39:51;0.50;99.90
1137;DHT22;557;48.466;7.950;2024-01-15T06:42:20;0.50;99.90
1137;DHT22;557;48.466;7.950;2024-01-15T06:44:47;0.50;99.90
1137;DHT22;557;48.466;7.950;2024-01-15T06:47:14;0.50;99.90
1137;DHT22;557;48.466;7.950;2024-01-15T06:49:43;0.50;99.90
1137;DHT22;557;48.466;7.950;2024-01-15T18:56:33;0.40;99.90
1137;DHT22;557;48.466;7.950;2024-01-15T18:59:01;0.40;99.90
1137;DHT22;557;48.466;7.950;2024-01-15T19:01:29;0.40;99.90
1137;DHT22;557;48.466;7.950;2024-01-15T19:04:00;0.30;99.90
1137;DHT22;557;48.466;7.950;2024-01-15T19:06:27;0.20;99.90
1137;DHT22;557;48.466;7.950;2024-01-15T19:08:54;0.10;99.90
1137;DHT22;557;48.466;7.950;2024-01-15T19:11:21;0.00;99.90
1137;DHT22;557;48.466;7.950;2024-01-15T19:13:50;-0.10;99.90
1137;DHT22;557;48.466;7.950;2024-01-15T19:16:17;-0.10;99.90
1137;DHT22;557;48.466;7.950;2024-01-15T19:18:47;-0.10;99.90
1137;DHT22;557;48.466;7.950;2024-01-15T19:21:16;-0.10;99.90
1137;DHT22;557;48.466;7.950;2024-01-15T19:23:43;0.00;99.90
1137;DHT22;557;48.466;7.950;2024-01-15T19:26:16;-0.10;99.90
1137;DHT22;557;48.466;7.950;2024-01-15T19:28:43;-0.10;99.90
1137;DHT22;557;48.466;7.950;2024-01-15T19:31:12;-0.20;99.90
1137;DHT22;557;48.466;7.950;2024-01-15T19:33:38;-0.20;99.90
1137;DHT22;557;48.466;7.950;2024-01-15T19:36:06;-0.30;99.90
1137;DHT22;557;48.466;7.950;2024-01-15T19:38:33;-0.20;99.90
1137;DHT22;557;48.466;7.950;2024-01-15T19:41:00;-0.10;99.90
1137;DHT22;557;48.466;7.950;2024-01-15T19:43:28;-0.10;99.90
1137;DHT22;557;48.466;7.950;2024-01-15T19:45:55;-0.10;99.90
1137;DHT22;557;48.466;7.950;2024-01-15T19:48:24;0.00;99.90
1137;DHT22;557;48.466;7.950;2024-01-15T19:50:50;0.00;99.90
1137;DHT22;557;48.466;7.950;2024-01-15T19:53:19;0.10;99.90
1137;DHT22;557;48.466;7.950;2024-01-15T19:55:45;0.10;99.90
1137;DHT22;557;48.466;7.950;2024-01-15T19:58:12;0.10;99.90
1137;DHT22;557;48.466;7.950;2024-01-15T20:00:39;0.00;99.90
1137;DHT22;557;48.466;7.950;2024-01-15T20:03:06;0.00;99.90
1137;DHT22;557;48.466;7.950;2024-01-15T20:05:34;0.00;99.90
1137;DHT22;557;48.466;7.950;2024-01-15T20:08:02;0.00;99.90
1137;DHT22;557;48.466;7.950;2024-01-15T20:10:29;0.00;99.90
1137;DHT22;557;48.466;7.950;2024-01-15T20:12:56;0.00;99.90
1137;DHT22;557;48.466;7.950;2024-01-15T20:15:23;0.10;99.90
1137;DHT22;557;48.466;7.950;2024-01-15T20:17:51;0.20;99.90
1137;DHT22;557;48.466;7.950;2024-01-15T20:20:19;0.20;99.90
1137;DHT22;557;48.466;7.950;2024-01-15T20:22:47;0.20;99.90
1137;DHT22;557;48.466;7.950;2024-01-15T20:25:14;0.30;99.90
1137;DHT22;557;48.466;7.950;2024-01-15T20:27:42;0.40;99.90
1137;DHT22;557;48.466;7.950;2024-01-15T20:30:10;0.40;99.90
1137;DHT22;557;48.466;7.950;2024-01-15T20:32:38;0.50;99.90
1137;DHT22;557;48.466;7.950;2024-01-15T20:35:06;0.50;99.90
1137;DHT22;557;48.466;7.950;2024-01-15T20:37:33;0.50;99.90
1137;DHT22;557;48.466;7.950;2024-01-15T20:40:01;0.50;99.90
1137;DHT22;557;48.466;7.950;2024-01-15T20:42:29;0.50;99.90
1137;DHT22;557;48.466;7.950;2024-01-15T20:44:55;0.50;99.90
1137;DHT22;557;48.466;7.950;2024-01-15T20:47:22;0.60;99.90
1137;DHT22;557;48.466;7.950;2024-01-15T20:49:49;0.60;99.90
1137;DHT22;557;48.466;7.950;2024-01-15T20:52:16;0.60;99.90
1137;DHT22;557;48.466;7.950;2024-01-15T20:54:43;0.60;99.90
1137;DHT22;557;48.466;7.950;2024-01-15T20:57:11;0.60;99.90
1137;DHT22;557;48.466;7.950;2024-01-15T20:59:38;0.50;99.90
1137;DHT22;557;48.466;7.950;2024-01-15T21:02:05;0.60;99.90
1137;DHT22;557;48.466;7.950;2024-01-15T21:04:32;0.60;99.90
1137;DHT22;557;48.466;7.950;2024-01-15T21:06:59;0.60;99.90
1137;DHT22;557;48.466;7.950;2024-01-15T21:09:26;0.50;99.90
1137;DHT22;557;48.466;7.950;2024-01-15T21:11:52;0.50;99.90
1137;DHT22;557;48.466;7.950;2024-01-15T21:14:23;0.50;99.90
1137;DHT22;557;48.466;7.950;2024-01-15T21:16:50;0.60;99.90
1137;DHT22;557;48.466;7.950;2024-01-15T21:19:18;0.60;99.90
1137;DHT22;557;48.466;7.950;2024-01-15T21:21:47;0.60;99.90
1137;DHT22;557;48.466;7.950;2024-01-15T21:24:17;0.60;99.90
1137;DHT22;557;48.466;7.950;2024-01-15T21:26:48;0.60;99.90
1137;DHT22;557;48.466;7.950;2024-01-15T21:29:14;0.50;99.90
1137;DHT22;557;48.466;7.950;2024-01-15T21:31:43;0.50;99.90
1137;DHT22;557;48.466;7.950;2024-01-15T21:34:10;0.60;99.90
1137;DHT22;557;48.466;7.950;2024-01-15T21:36:38;0.60;99.90
1137;DHT22;557;48.466;7.950;2024-01-15T21:39:06;0.60;99.90
1137;DHT22;557;48.466;7.950;2024-01-15T21:41:33;0.60;99.90
1137;DHT22;557;48.466;7.950;2024-01-15T21:44:00;0.50;99.90
1137;DHT22;557;48.466;7.950;2024-01-15T21:46:31;0.60;99.90
1137;DHT22;557;48.466;7.950;2024-01-15T21:49:00;0.60;99.90
1137;DHT22;557;48.466;7.950;2024-01-15T21:51:26;0.60;99.90
1137;DHT22;557;48.466;7.950;2024-01-15T21:53:57;0.60;99.90
1137;DHT22;557;48.466;7.950;2024-01-15T21:56:24;0.60;99.90
1137;DHT22;557;48.466;7.950;2024-01-15T21:58:51;0.60;99.90
1137;DHT22;557;48.466;7.950;2024-01-15T22:01:18;0.60;99.90
1137;DHT22;557;48.466;7.950;2024-01-15T22:03:48;0.60;99.90
1137;DHT22;557;48.466;7.950;2024-01-15T22:06:16;0.60;99.90
1137;DHT22;557;48.466;7.950;2024-01-15T22:08:43;0.60;99.90
1137;DHT22;557;48.466;7.950;2024-01-15T22:11:10;0.60;99.90
1137;DHT22;557;48.466;7.950;2024-01-15T22:13:37;0.70;99.90
1137;DHT22;557;48.466;7.950;2024-01-15T22:16:04;0.70;99.90
1137;DHT22;557;48.466;7.950;2024-01-15T22:18:32;0.70;99.90
1137;DHT22;557;48.466;7.950;2024-01-15T22:21:00;0.60;99.90
1137;DHT22;557;48.466;7.950;2024-01-15T22:23:28;0.60;99.90
1137;DHT22;557;48.466;7.950;2024-01-15T22:25:56;0.60;99.90
1137;DHT22;557;48.466;7.950;2024-01-15T22:28:23;0.60;99.90
1137;DHT22;557;48.466;7.950;2024-01-15T22:30:50;0.70;99.90
1137;DHT22;557;48.466;7.950;2024-01-15T22:33:16;0.60;99.90
1137;DHT22;557;48.466;7.950;2024-01-15T22:35:43;0.60;99.90
1137;DHT22;557;48.466;7.950;2024-01-15T22:38:10;0.60;99.90
1137;DHT22;557;48.466;7.950;2024-01-15T22:40:38;0.60;99.90
1137;DHT22;557;48.466;7.950;2024-01-15T22:43:06;0.60;99.90
1137;DHT22;557;48.466;7.950;2024-01-15T22:45:36;0.60;99.90
1137;DHT22;557;48.466;7.950;2024-01-15T22:48:03;0.60;99.90
1137;DHT22;557;48.466;7.950;2024-01-15T22:50:29;0.70;99.90
1137;DHT22;557;48.466;7.950;2024-01-15T22:52:56;0.60;99.90
1137;DHT22;557;48.466;7.950;2024-01-15T22:55:23;0.70;99.90
1137;DHT22;557;48.466;7.950;2024-01-15T22:57:51;0.70;99.90
1137;DHT22;557;48.466;7.950;2024-01-15T23:00:18;0.70;99.90
1137;DHT22;557;48.466;7.950;2024-01-15T23:02:48;0.70;99.90
1137;DHT22;557;48.466;7.950;2024-01-15T23:05:15;0.70;99.90
1137;DHT22;557;48.466;7.950;2024-01-15T23:07:42;0.60;99.90
1137;DHT22;557;48.466;7.950;2024-01-15T23:10:09;0.60;99.90
1137;DHT22;557;48.466;7.950;2024-01-15T23:12:36;0.70;99.90
1137;DHT22;557;48.466;7.950;2024-01-15T23:15:05;0.70;99.90
1137;DHT22;557;48.466;7.950;2024-01-15T23:17:32;0.70;99.90
1137;DHT22;557;48.466;7.950;2024-01-15T23:20:00;0.70;99.90
1137;DHT22;557;48.466;7.950;2024-01-15T23:22:26;0.70;99.90
1137;DHT22;557;48.466;7.950;2024-01-15T23:24:53;0.70;99.90
1137;DHT22;557;48.466;7.950;2024-01-15T23:27:20;0.60;99.90
1137;DHT22;557;48.466;7.950;2024-01-15T23:29:47;0.60;99.90
1137;DHT22;557;48.466;7.950;2024-01-15T23:32:15;0.60;99.90
1137;DHT22;557;48.466;7.950;2024-01-15T23:34:42;0.50;99.90
1137;DHT22;557;48.466;7.950;2024-01-15T23:37:09;0.50;99.90
1137;DHT22;557;48.466;7.950;2024-01-15T23:39:36;0.50;99.90
1137;DHT22;557;48.466;7.950;2024-01-15T23:42:03;0.50;99.90
1137;DHT22;557;48.466;7.950;2024-01-15T23:44:30;0.50;99.90
1137;DHT22;557;48.466;7.950;2024-01-15T23:46:57;0.40;99.90
1137;DHT22;557;48.466;7.950;2024-01-15T23:49:25;0.50;99.90
1137;DHT22;557;48.466;7.950;2024-01-15T23:51:52;0.50;99.90
1137;DHT22;557;48.466;7.950;2024-01-15T23:54:19;0.40;99.90
1137;DHT22;557;48.466;7.950;2024-01-15T23:56:46;0.50;99.90
1137;DHT22;557;48.466;7.950;2024-01-15T23:59:13;0.50;99.90
